sensor_id;sensor_type;location;lat;lon;timestamp;P1;durP1;ratioP1;P2;durP2;ratioP2
76708;SDS011;74360;44.410;0.216;2024-03-22T00:01:02;18.20;;;7.67;;
76708;SDS011;74360;44.410;0.216;2024-03-22T00:12:07;17.10;;;7.23;;
76708;SDS011;74360;44.410;0.216;2024-03-22T00:17:39;16.10;;;7.77;;
76708;SDS011;74360;44.410;0.216;2024-03-22T00:23:12;17.73;;;7.43;;
76708;SDS011;74360;44.410;0.216;2024-03-22T00:28:45;16.63;;;8.50;;
76708;SDS011;74360;44.410;0.216;2024-03-22T00:34:18;17.73;;;7.93;;
76708;SDS011;74360;44.410;0.216;2024-03-22T00:39:50;18.83;;;7.70;;
76708;SDS011;74360;44.410;0.216;2024-03-22T00:45:22;13.13;;;7.50;;
76708;SDS011;74360;44.410;0.216;2024-03-22T00:50:55;16.87;;;7.67;;
76708;SDS011;74360;44.410;0.216;2024-03-22T01:01:59;18.17;;;8.83;;
76708;SDS011;74360;44.410;0.216;2024-03-22T01:07:35;16.13;;;8.93;;
76708;SDS011;74360;44.410;0.216;2024-03-22T01:13:06;15.63;;;8.37;;
76708;SDS011;74360;44.410;0.216;2024-03-22T01:18:38;19.43;;;8.47;;
76708;SDS011;74360;44.410;0.216;2024-03-22T01:29:44;23.47;;;10.00;;
76708;SDS011;74360;44.410;0.216;2024-03-22T01:35:16;15.47;;;8.67;;
76708;SDS011;74360;44.410;0.216;2024-03-22T01:40:47;21.60;;;8.90;;
76708;SDS011;74360;44.410;0.216;2024-03-22T01:46:21;19.57;;;8.30;;
76708;SDS011;74360;44.410;0.216;2024-03-22T01:51:53;15.37;;;8.43;;
76708;SDS011;74360;44.410;0.216;2024-03-22T01:57:26;18.53;;;9.43;;
76708;SDS011;74360;44.410;0.216;2024-03-22T02:02:59;19.47;;;9.33;;
76708;SDS011;74360;44.410;0.216;2024-03-22T02:08:32;19.93;;;9.97;;
76708;SDS011;74360;44.410;0.216;2024-03-22T02:14:04;14.80;;;8.37;;
76708;SDS011;74360;44.410;0.216;2024-03-22T02:19:37;17.30;;;9.20;;
76708;SDS011;74360;44.410;0.216;2024-03-22T02:25:10;17.73;;;9.27;;
76708;SDS011;74360;44.410;0.216;2024-03-22T02:30:43;18.33;;;9.77;;
76708;SDS011;74360;44.410;0.216;2024-03-22T02:36:17;20.50;;;9.60;;
76708;SDS011;74360;44.410;0.216;2024-03-22T02:41:51;16.67;;;9.40;;
76708;SDS011;74360;44.410;0.216;2024-03-22T02:47:23;16.90;;;9.93;;
76708;SDS011;74360;44.410;0.216;2024-03-22T02:52:56;14.87;;;8.73;;
76708;SDS011;74360;44.410;0.216;2024-03-22T03:04:00;18.10;;;8.30;;
76708;SDS011;74360;44.410;0.216;2024-03-22T03:09:32;17.47;;;9.27;;
76708;SDS011;74360;44.410;0.216;2024-03-22T03:15:07;18.93;;;9.77;;
76708;SDS011;74360;44.410;0.216;2024-03-22T03:20:39;17.73;;;9.40;;
76708;SDS011;74360;44.410;0.216;2024-03-22T03:31:45;15.13;;;8.33;;
76708;SDS011;74360;44.410;0.216;2024-03-22T03:37:18;16.30;;;8.53;;
76708;SDS011;74360;44.410;0.216;2024-03-22T03:42:50;15.47;;;8.50;;
76708;SDS011;74360;44.410;0.216;2024-03-22T03:48:22;16.93;;;9.07;;
76708;SDS011;74360;44.410;0.216;2024-03-22T03:53:55;16.43;;;8.17;;
76708;SDS011;74360;44.410;0.216;2024-03-22T03:59:28;16.17;;;8.40;;
76708;SDS011;74360;44.410;0.216;2024-03-22T04:05:00;12.80;;;8.13;;
76708;SDS011;74360;44.410;0.216;2024-03-22T04:16:05;15.13;;;8.60;;
76708;SDS011;74360;44.410;0.216;2024-03-22T04:21:37;16.77;;;8.03;;
76708;SDS011;74360;44.410;0.216;2024-03-22T04:27:10;16.43;;;9.03;;
76708;SDS011;74360;44.410;0.216;2024-03-22T04:32:45;15.53;;;8.17;;
76708;SDS011;74360;44.410;0.216;2024-03-22T04:38:17;19.90;;;8.80;;
76708;SDS011;74360;44.410;0.216;2024-03-22T04:43:49;15.40;;;8.63;;
76708;SDS011;74360;44.410;0.216;2024-03-22T04:49:21;18.97;;;9.17;;
76708;SDS011;74360;44.410;0.216;2024-03-22T04:54:53;22.27;;;9.93;;
76708;SDS011;74360;44.410;0.216;2024-03-22T05:05:58;22.50;;;10.33;;
76708;SDS011;74360;44.410;0.216;2024-03-22T05:17:03;40.60;;;10.77;;
76708;SDS011;74360;44.410;0.216;2024-03-22T05:22:36;25.47;;;11.53;;
76708;SDS011;74360;44.410;0.216;2024-03-22T05:28:08;27.67;;;11.33;;
76708;SDS011;74360;44.410;0.216;2024-03-22T05:39:14;21.83;;;9.87;;
76708;SDS011;74360;44.410;0.216;2024-03-22T05:44:47;31.77;;;10.43;;
76708;SDS011;74360;44.410;0.216;2024-03-22T05:50:21;28.03;;;8.60;;
76708;SDS011;74360;44.410;0.216;2024-03-22T05:55:51;21.40;;;9.03;;
76708;SDS011;74360;44.410;0.216;2024-03-22T06:01:25;26.53;;;10.57;;
76708;SDS011;74360;44.410;0.216;2024-03-22T06:07:00;26.53;;;10.73;;
76708;SDS011;74360;44.410;0.216;2024-03-22T06:12:32;35.33;;;12.13;;
76708;SDS011;74360;44.410;0.216;2024-03-22T06:18:04;25.33;;;9.93;;
76708;SDS011;74360;44.410;0.216;2024-03-22T06:23:37;36.30;;;11.63;;
76708;SDS011;74360;44.410;0.216;2024-03-22T06:29:11;27.90;;;11.57;;
76708;SDS011;74360;44.410;0.216;2024-03-22T06:34:43;19.13;;;9.60;;
76708;SDS011;74360;44.410;0.216;2024-03-22T06:40:16;21.07;;;10.87;;
76708;SDS011;74360;44.410;0.216;2024-03-22T06:45:49;46.10;;;11.17;;
76708;SDS011;74360;44.410;0.216;2024-03-22T06:51:20;46.07;;;12.47;;
76708;SDS011;74360;44.410;0.216;2024-03-22T06:56:53;24.67;;;9.90;;
76708;SDS011;74360;44.410;0.216;2024-03-22T07:02:26;28.17;;;11.03;;
76708;SDS011;74360;44.410;0.216;2024-03-22T07:07:58;41.13;;;9.93;;
76708;SDS011;74360;44.410;0.216;2024-03-22T07:13:30;104.17;;;12.60;;
76708;SDS011;74360;44.410;0.216;2024-03-22T07:19:02;37.83;;;10.27;;
76708;SDS011;74360;44.410;0.216;2024-03-22T07:24:37;44.87;;;9.67;;
76708;SDS011;74360;44.410;0.216;2024-03-22T07:30:10;15.50;;;8.60;;
76708;SDS011;74360;44.410;0.216;2024-03-22T07:35:41;25.63;;;8.73;;
76708;SDS011;74360;44.410;0.216;2024-03-22T07:41:13;75.80;;;10.87;;
76708;SDS011;74360;44.410;0.216;2024-03-22T07:46:46;29.83;;;9.30;;
76708;SDS011;74360;44.410;0.216;2024-03-22T07:57:50;36.63;;;9.37;;
76708;SDS011;74360;44.410;0.216;2024-03-22T08:03:24;17.83;;;9.53;;
76708;SDS011;74360;44.410;0.216;2024-03-22T08:08:54;19.40;;;9.90;;
76708;SDS011;74360;44.410;0.216;2024-03-22T08:14:28;50.90;;;12.57;;
76708;SDS011;74360;44.410;0.216;2024-03-22T08:20:01;28.70;;;14.80;;
76708;SDS011;74360;44.410;0.216;2024-03-22T08:25:33;37.40;;;16.70;;
76708;SDS011;74360;44.410;0.216;2024-03-22T08:31:07;33.00;;;20.03;;
76708;SDS011;74360;44.410;0.216;2024-03-22T08:36:40;36.60;;;20.00;;
76708;SDS011;74360;44.410;0.216;2024-03-22T08:42:11;25.20;;;16.40;;
76708;SDS011;74360;44.410;0.216;2024-03-22T08:47:46;19.27;;;13.43;;
76708;SDS011;74360;44.410;0.216;2024-03-22T08:53:18;18.50;;;12.53;;
76708;SDS011;74360;44.410;0.216;2024-03-22T08:58:51;18.60;;;10.53;;
76708;SDS011;74360;44.410;0.216;2024-03-22T09:04:24;16.00;;;10.20;;
76708;SDS011;74360;44.410;0.216;2024-03-22T09:09:56;22.83;;;11.50;;
76708;SDS011;74360;44.410;0.216;2024-03-22T09:15:30;19.83;;;12.70;;
76708;SDS011;74360;44.410;0.216;2024-03-22T09:21:00;15.90;;;10.27;;
76708;SDS011;74360;44.410;0.216;2024-03-22T09:26:33;14.83;;;10.47;;
76708;SDS011;74360;44.410;0.216;2024-03-22T09:32:05;14.20;;;10.07;;
76708;SDS011;74360;44.410;0.216;2024-03-22T09:37:38;14.67;;;9.47;;
76708;SDS011;74360;44.410;0.216;2024-03-22T09:43:11;12.83;;;8.87;;
76708;SDS011;74360;44.410;0.216;2024-03-22T09:48:43;12.97;;;8.33;;
76708;SDS011;74360;44.410;0.216;2024-03-22T09:54:16;10.37;;;6.80;;
76708;SDS011;74360;44.410;0.216;2024-03-22T09:59:50;11.90;;;7.20;;
76708;SDS011;74360;44.410;0.216;2024-03-22T10:05:22;9.60;;;7.17;;
76708;SDS011;74360;44.410;0.216;2024-03-22T10:16:32;10.80;;;6.40;;
76708;SDS011;74360;44.410;0.216;2024-03-22T10:21:59;11.63;;;6.43;;
76708;SDS011;74360;44.410;0.216;2024-03-22T10:27:33;11.30;;;6.90;;
76708;SDS011;74360;44.410;0.216;2024-03-22T10:33:05;12.07;;;6.27;;
76708;SDS011;74360;44.410;0.216;2024-03-22T10:38:39;11.00;;;6.17;;
76708;SDS011;74360;44.410;0.216;2024-03-22T10:44:13;9.87;;;5.77;;
76708;SDS011;74360;44.410;0.216;2024-03-22T10:49:46;11.20;;;6.20;;
76708;SDS011;74360;44.410;0.216;2024-03-22T10:55:19;9.53;;;6.13;;
76708;SDS011;74360;44.410;0.216;2024-03-22T11:00:52;10.57;;;6.23;;
76708;SDS011;74360;44.410;0.216;2024-03-22T11:06:26;13.77;;;6.77;;
76708;SDS011;74360;44.410;0.216;2024-03-22T11:12:00;10.93;;;6.20;;
76708;SDS011;74360;44.410;0.216;2024-03-22T11:17:31;9.53;;;6.10;;
76708;SDS011;74360;44.410;0.216;2024-03-22T11:23:04;12.23;;;5.50;;
76708;SDS011;74360;44.410;0.216;2024-03-22T11:28:36;9.80;;;4.87;;
76708;SDS011;74360;44.410;0.216;2024-03-22T11:34:09;8.43;;;4.87;;
76708;SDS011;74360;44.410;0.216;2024-03-22T11:39:42;10.87;;;4.97;;
76708;SDS011;74360;44.410;0.216;2024-03-22T11:45:14;8.10;;;4.23;;
76708;SDS011;74360;44.410;0.216;2024-03-22T11:50:45;9.27;;;3.97;;
76708;SDS011;74360;44.410;0.216;2024-03-22T11:56:19;7.87;;;4.33;;
76708;SDS011;74360;44.410;0.216;2024-03-22T12:01:52;9.33;;;4.00;;
76708;SDS011;74360;44.410;0.216;2024-03-22T12:07:25;7.93;;;3.73;;
76708;SDS011;74360;44.410;0.216;2024-03-22T12:12:58;9.80;;;3.90;;
76708;SDS011;74360;44.410;0.216;2024-03-22T12:24:04;7.93;;;3.00;;
76708;SDS011;74360;44.410;0.216;2024-03-22T12:29:37;6.70;;;3.07;;
76708;SDS011;74360;44.410;0.216;2024-03-22T12:35:10;7.90;;;2.60;;
76708;SDS011;74360;44.410;0.216;2024-03-22T12:40:42;8.60;;;3.07;;
76708;SDS011;74360;44.410;0.216;2024-03-22T12:46:16;7.03;;;2.50;;
76708;SDS011;74360;44.410;0.216;2024-03-22T12:51:48;8.13;;;2.70;;
76708;SDS011;74360;44.410;0.216;2024-03-22T13:02:54;7.23;;;2.70;;
76708;SDS011;74360;44.410;0.216;2024-03-22T13:08:27;8.13;;;2.47;;
76708;SDS011;74360;44.410;0.216;2024-03-22T13:13:59;8.67;;;2.47;;
76708;SDS011;74360;44.410;0.216;2024-03-22T13:19:31;7.50;;;2.20;;
76708;SDS011;74360;44.410;0.216;2024-03-22T13:25:06;5.83;;;1.80;;
76708;SDS011;74360;44.410;0.216;2024-03-22T13:30:37;7.37;;;2.40;;
76708;SDS011;74360;44.410;0.216;2024-03-22T13:36:08;7.00;;;1.70;;
76708;SDS011;74360;44.410;0.216;2024-03-22T13:41:41;5.43;;;1.70;;
76708;SDS011;74360;44.410;0.216;2024-03-22T13:47:13;8.87;;;1.70;;
76708;SDS011;74360;44.410;0.216;2024-03-22T13:52:45;10.07;;;2.17;;
76708;SDS011;74360;44.410;0.216;2024-03-22T13:58:19;6.87;;;2.03;;
76708;SDS011;74360;44.410;0.216;2024-03-22T14:09:23;6.33;;;2.03;;
76708;SDS011;74360;44.410;0.216;2024-03-22T14:14:55;6.47;;;2.07;;
76708;SDS011;74360;44.410;0.216;2024-03-22T14:20:29;6.27;;;2.00;;
76708;SDS011;74360;44.410;0.216;2024-03-22T14:26:00;7.23;;;2.00;;
76708;SDS011;74360;44.410;0.216;2024-03-22T14:31:32;6.53;;;1.47;;
76708;SDS011;74360;44.410;0.216;2024-03-22T14:37:04;5.73;;;1.97;;
76708;SDS011;74360;44.410;0.216;2024-03-22T14:42:38;8.50;;;1.80;;
76708;SDS011;74360;44.410;0.216;2024-03-22T14:48:10;4.90;;;1.67;;
76708;SDS011;74360;44.410;0.216;2024-03-22T14:53:43;7.03;;;1.73;;
76708;SDS011;74360;44.410;0.216;2024-03-22T14:59:16;10.10;;;2.70;;
76708;SDS011;74360;44.410;0.216;2024-03-22T15:10:23;7.03;;;1.80;;
76708;SDS011;74360;44.410;0.216;2024-03-22T15:15:58;6.10;;;1.70;;
76708;SDS011;74360;44.410;0.216;2024-03-22T15:21:30;5.57;;;1.70;;
76708;SDS011;74360;44.410;0.216;2024-03-22T15:27:04;4.03;;;1.57;;
76708;SDS011;74360;44.410;0.216;2024-03-22T15:32:36;7.23;;;1.60;;
76708;SDS011;74360;44.410;0.216;2024-03-22T15:38:08;5.80;;;1.60;;
76708;SDS011;74360;44.410;0.216;2024-03-22T15:43:40;6.20;;;1.77;;
76708;SDS011;74360;44.410;0.216;2024-03-22T15:54:44;5.10;;;1.40;;
76708;SDS011;74360;44.410;0.216;2024-03-22T16:00:18;5.90;;;1.57;;
76708;SDS011;74360;44.410;0.216;2024-03-22T16:05:52;6.17;;;1.80;;
76708;SDS011;74360;44.410;0.216;2024-03-22T16:11:23;6.87;;;1.43;;
76708;SDS011;74360;44.410;0.216;2024-03-22T16:22:29;6.93;;;1.70;;
76708;SDS011;74360;44.410;0.216;2024-03-22T16:28:01;7.40;;;1.40;;
76708;SDS011;74360;44.410;0.216;2024-03-22T16:39:05;8.17;;;1.77;;
76708;SDS011;74360;44.410;0.216;2024-03-22T16:44:38;6.17;;;1.40;;
76708;SDS011;74360;44.410;0.216;2024-03-22T16:50:11;7.03;;;2.23;;
76708;SDS011;74360;44.410;0.216;2024-03-22T16:55:44;6.07;;;1.60;;
76708;SDS011;74360;44.410;0.216;2024-03-22T17:01:17;8.07;;;2.30;;
76708;SDS011;74360;44.410;0.216;2024-03-22T17:06:48;5.90;;;1.60;;
76708;SDS011;74360;44.410;0.216;2024-03-22T17:12:20;7.53;;;2.00;;
76708;SDS011;74360;44.410;0.216;2024-03-22T17:17:53;7.17;;;1.70;;
76708;SDS011;74360;44.410;0.216;2024-03-22T17:23:25;6.00;;;1.77;;
76708;SDS011;74360;44.410;0.216;2024-03-22T17:28:58;8.13;;;2.30;;
76708;SDS011;74360;44.410;0.216;2024-03-22T17:34:29;8.90;;;3.10;;
76708;SDS011;74360;44.410;0.216;2024-03-22T17:40:01;11.20;;;2.50;;
76708;SDS011;74360;44.410;0.216;2024-03-22T17:51:06;8.20;;;2.60;;
76708;SDS011;74360;44.410;0.216;2024-03-22T17:56:38;7.47;;;2.53;;
76708;SDS011;74360;44.410;0.216;2024-03-22T18:07:42;9.73;;;2.97;;
76708;SDS011;74360;44.410;0.216;2024-03-22T18:13:16;14.00;;;2.97;;
76708;SDS011;74360;44.410;0.216;2024-03-22T18:18:47;10.10;;;2.77;;
76708;SDS011;74360;44.410;0.216;2024-03-22T18:24:20;9.53;;;2.60;;
76708;SDS011;74360;44.410;0.216;2024-03-22T18:29:53;11.90;;;3.40;;
76708;SDS011;74360;44.410;0.216;2024-03-22T18:35:27;23.90;;;3.73;;
76708;SDS011;74360;44.410;0.216;2024-03-22T18:40:59;16.63;;;6.10;;
76708;SDS011;74360;44.410;0.216;2024-03-22T18:46:32;10.83;;;5.17;;
76708;SDS011;74360;44.410;0.216;2024-03-22T18:52:05;13.17;;;3.70;;
76708;SDS011;74360;44.410;0.216;2024-03-22T18:57:37;12.13;;;4.30;;
76708;SDS011;74360;44.410;0.216;2024-03-22T19:03:09;13.03;;;4.67;;
76708;SDS011;74360;44.410;0.216;2024-03-22T19:08:43;8.50;;;3.43;;
76708;SDS011;74360;44.410;0.216;2024-03-22T19:14:15;12.80;;;3.57;;
76708;SDS011;74360;44.410;0.216;2024-03-22T19:19:48;7.57;;;2.80;;
76708;SDS011;74360;44.410;0.216;2024-03-22T19:25:20;9.37;;;2.83;;
76708;SDS011;74360;44.410;0.216;2024-03-22T19:30:53;9.30;;;2.87;;
76708;SDS011;74360;44.410;0.216;2024-03-22T19:36:26;8.67;;;2.83;;
76708;SDS011;74360;44.410;0.216;2024-03-22T19:41:55;13.60;;;5.57;;
76708;SDS011;74360;44.410;0.216;2024-03-22T19:47:29;17.00;;;5.50;;
76708;SDS011;74360;44.410;0.216;2024-03-22T19:53:01;8.20;;;3.10;;
76708;SDS011;74360;44.410;0.216;2024-03-22T19:58:33;10.10;;;3.20;;
76708;SDS011;74360;44.410;0.216;2024-03-22T20:04:05;9.10;;;3.23;;
76708;SDS011;74360;44.410;0.216;2024-03-22T20:09:37;8.23;;;3.30;;
76708;SDS011;74360;44.410;0.216;2024-03-22T20:15:11;8.80;;;3.07;;
76708;SDS011;74360;44.410;0.216;2024-03-22T20:20:42;7.27;;;2.80;;
76708;SDS011;74360;44.410;0.216;2024-03-22T20:26:13;7.07;;;3.10;;
76708;SDS011;74360;44.410;0.216;2024-03-22T20:31:45;9.00;;;3.23;;
76708;SDS011;74360;44.410;0.216;2024-03-22T20:37:19;10.33;;;3.53;;
